Time;durP1;ratioP1;P1;durP2;ratioP2;P2;SDS_P1;SDS_P2;PMS_P1;PMS_P2;Temp;Humidity;BMP_temperature;BMP_pressure;BME280_temperature;BME280_humidity;BME280_pressure;Samples;Min_cycle;Max_cycle;Signal;HPM_P1;HPM_P2
2020/12/25 00:02:20;;;;;;;0.80;0.80;;;3.40;99.90;;;;;;5086145;28;20469;-76
2020/12/25 00:04:46;;;;;;;1.37;1.00;;;3.20;99.90;;;;;;5089388;28;20471;-76
2020/12/25 00:07:14;;;;;;;0.83;0.83;;;3.20;99.90;;;;;;5093980;28;20468;-78
2020/12/25 00:09:40;;;;;;;0.80;0.80;;;3.20;99.90;;;;;;5083566;28;20817;-77
2020/12/25 00:12:07;;;;;;;0.80;0.80;;;3.30;99.90;;;;;;5075959;28;20477;-79
2020/12/25 00:14:34;;;;;;;0.70;0.70;;;3.40;99.90;;;;;;5072133;28;20934;-75
2020/12/25 00:17:00;;;;;;;0.60;0.50;;;3.30;99.90;;;;;;5071594;28;20989;-77
2020/12/25 00:19:26;;;;;;;0.70;0.70;;;3.40;99.90;;;;;;5071432;28;20550;-79
2020/12/25 00:21:53;;;;;;;1.10;0.70;;;3.30;99.90;;;;;;5070937;28;20937;-78
2020/12/25 00:24:21;;;;;;;0.70;0.70;;;3.20;99.90;;;;;;5070149;28;20856;-77
2020/12/25 00:26:47;;;;;;;1.23;0.90;;;3.20;99.90;;;;;;5071509;28;20527;-77
2020/12/25 00:29:14;;;;;;;0.60;0.60;;;3.10;99.90;;;;;;5075355;28;20593;-78
2020/12/25 00:31:40;;;;;;;0.80;0.70;;;2.90;99.90;;;;;;5074862;28;20483;-78
2020/12/25 00:34:08;;;;;;;0.60;0.60;;;3.00;99.90;;;;;;5074929;28;20536;-77
2020/12/25 00:36:36;;;;;;;0.80;0.60;;;3.10;99.90;;;;;;5074205;28;20525;-77
2020/12/25 00:39:06;;;;;;;0.80;0.70;;;3.50;99.90;;;;;;5074579;28;20457;-78
2020/12/25 00:41:34;;;;;;;0.73;0.53;;;3.40;99.90;;;;;;5075126;28;20468;-78
2020/12/25 00:44:00;;;;;;;0.63;0.57;;;3.40;99.90;;;;;;5074762;28;20993;-76
2020/12/25 00:46:26;;;;;;;0.97;0.60;;;3.50;99.90;;;;;;5074368;28;20524;-79
2020/12/25 00:48:54;;;;;;;0.60;0.57;;;3.30;99.90;;;;;;5075672;28;20528;-77
2020/12/25 00:51:22;;;;;;;0.70;0.60;;;3.40;99.90;;;;;;5075312;28;20472;-77
2020/12/25 00:53:48;;;;;;;0.80;0.80;;;3.50;99.90;;;;;;5074120;28;20452;-78
2020/12/25 00:56:16;;;;;;;0.70;0.70;;;3.20;99.90;;;;;;5074036;28;20519;-78
2020/12/25 00:58:43;;;;;;;0.87;0.60;;;3.40;99.90;;;;;;5073809;28;20484;-78
2020/12/25 01:01:11;;;;;;;0.90;0.70;;;3.40;99.90;;;;;;5074622;28;20561;-78
2020/12/25 01:03:38;;;;;;;1.20;0.97;;;3.70;99.90;;;;;;5094119;28;20594;-78
2020/12/25 01:06:09;;;;;;;2.33;0.83;;;3.60;99.90;;;;;;5094164;28;20449;-77
2020/12/25 01:08:35;;;;;;;3.73;1.03;;;3.50;99.90;;;;;;5093916;28;20529;-78
2020/12/25 01:11:02;;;;;;;1.10;1.00;;;3.70;99.90;;;;;;5094199;28;20531;-78
2020/12/25 01:13:28;;;;;;;0.93;0.77;;;3.60;99.90;;;;;;5094327;28;20476;-78
2020/12/25 01:15:55;;;;;;;1.47;0.90;;;3.60;99.90;;;;;;5093377;28;20571;-78
2020/12/25 01:18:22;;;;;;;0.83;0.83;;;3.70;99.90;;;;;;5094310;28;20475;-77
2020/12/25 01:20:49;;;;;;;1.77;1.07;;;3.50;99.90;;;;;;5093717;28;20575;-78
2020/12/25 01:23:15;;;;;;;1.20;0.87;;;3.70;99.90;;;;;;5094151;28;20531;-79
2020/12/25 01:25:41;;;;;;;1.23;1.10;;;3.60;99.90;;;;;;5093201;28;20539;-77
2020/12/25 01:28:08;;;;;;;1.40;1.10;;;3.80;99.90;;;;;;5093907;28;20539;-78
2020/12/25 01:30:34;;;;;;;1.27;1.17;;;3.90;99.90;;;;;;5093663;28;20522;-78
2020/12/25 01:33:01;;;;;;;1.10;0.90;;;4.00;99.90;;;;;;5093759;28;20515;-79
2020/12/25 01:35:28;;;;;;;1.23;1.10;;;3.90;99.90;;;;;;5093762;28;20515;-80
2020/12/25 01:37:54;;;;;;;1.13;0.93;;;4.00;99.90;;;;;;5091923;28;20547;-78
2020/12/25 01:40:21;;;;;;;1.27;1.07;;;4.20;99.90;;;;;;5091526;28;20988;-78
2020/12/25 01:42:47;;;;;;;1.10;0.90;;;4.30;99.90;;;;;;5073037;28;20938;-78
2020/12/25 01:45:13;;;;;;;3.53;1.10;;;3.80;99.90;;;;;;5073341;28;20560;-79
2020/12/25 01:47:40;;;;;;;1.03;0.93;;;3.60;99.90;;;;;;5072656;28;20667;-78
2020/12/25 01:50:08;;;;;;;1.37;1.20;;;3.90;99.90;;;;;;5073194;28;20447;-78
2020/12/25 01:52:37;;;;;;;1.20;1.10;;;3.90;99.90;;;;;;5082534;28;20484;-78
2020/12/25 01:55:07;;;;;;;1.40;1.30;;;3.80;99.90;;;;;;5093156;28;20537;-78
2020/12/25 01:57:33;;;;;;;1.60;1.33;;;3.70;99.90;;;;;;5093206;28;20519;-76
2020/12/25 02:00:01;;;;;;;2.03;1.40;;;4.10;99.90;;;;;;5089430;28;20441;-79
2020/12/25 02:02:30;;;;;;;1.63;1.53;;;4.10;99.90;;;;;;5073254;28;20500;-79
2020/12/25 02:04:56;;;;;;;1.80;1.70;;;4.00;99.90;;;;;;5072973;28;20533;-78
2020/12/25 02:07:23;;;;;;;1.50;1.40;;;4.00;99.90;;;;;;5072903;28;20587;-77
2020/12/25 02:09:50;;;;;;;2.30;2.00;;;3.90;99.90;;;;;;5072654;28;20465;-79
2020/12/25 02:12:17;;;;;;;1.60;1.50;;;3.80;99.90;;;;;;5072858;28;20591;-79
2020/12/25 02:14:44;;;;;;;3.83;3.30;;;3.70;99.90;;;;;;5077683;28;20495;-79
2020/12/25 02:17:10;;;;;;;2.67;2.47;;;3.70;99.90;;;;;;5092686;28;20448;-78
2020/12/25 02:19:37;;;;;;;2.40;2.20;;;3.80;99.90;;;;;;5092091;28;20480;-79
2020/12/25 02:22:05;;;;;;;6.33;2.30;;;3.80;99.90;;;;;;5093303;28;20479;-78
2020/12/25 02:24:32;;;;;;;3.70;2.70;;;4.00;99.90;;;;;;5092935;28;20850;-79
2020/12/25 02:26:58;;;;;;;2.67;2.03;;;3.70;99.90;;;;;;5093424;28;20525;-78
2020/12/25 02:29:24;;;;;;;2.43;2.03;;;3.70;99.90;;;;;;5092792;28;20937;-77
2020/12/25 02:31:51;;;;;;;3.50;2.37;;;3.70;99.90;;;;;;5092544;28;20487;-79
2020/12/25 02:34:17;;;;;;;4.20;2.47;;;3.70;99.90;;;;;;5092834;28;20855;-78
2020/12/25 02:36:44;;;;;;;2.20;2.00;;;3.70;99.90;;;;;;5091804;28;20527;-78
2020/12/25 02:39:11;;;;;;;4.50;3.00;;;3.70;99.90;;;;;;5092489;28;21058;-78
2020/12/25 02:41:37;;;;;;;5.40;3.07;;;3.80;99.90;;;;;;5092252;28;20455;-79
2020/12/25 02:44:04;;;;;;;3.00;2.80;;;3.70;99.90;;;;;;5092237;28;20543;-77
2020/12/25 02:46:30;;;;;;;4.13;3.20;;;3.80;99.90;;;;;;5092196;28;20531;-79
2020/12/25 02:48:57;;;;;;;2.67;2.33;;;3.60;99.90;;;;;;5091831;28;20997;-78
2020/12/25 02:51:23;;;;;;;5.00;3.87;;;3.90;99.90;;;;;;5091891;28;20469;-78
2020/12/25 02:53:49;;;;;;;6.30;4.17;;;3.80;99.90;;;;;;5092295;28;20866;-79
2020/12/25 02:56:17;;;;;;;4.47;3.00;;;4.00;99.90;;;;;;5091970;28;20798;-78
2020/12/25 02:58:44;;;;;;;3.90;2.97;;;3.80;99.90;;;;;;5091794;28;20522;-79
2020/12/25 03:01:11;;;;;;;3.47;2.83;;;3.90;99.90;;;;;;5077908;28;20914;-79
2020/12/25 03:03:39;;;;;;;3.57;3.27;;;3.80;99.90;;;;;;5071808;28;20449;-79
2020/12/25 03:06:05;;;;;;;3.30;3.00;;;4.00;99.90;;;;;;5071918;28;20447;-77
2020/12/25 03:08:32;;;;;;;2.63;2.43;;;3.80;99.90;;;;;;5092349;28;20543;-78
2020/12/25 03:10:59;;;;;;;3.53;2.87;;;3.70;99.90;;;;;;5092129;28;20448;-78
2020/12/25 03:13:26;;;;;;;4.00;2.93;;;3.60;99.90;;;;;;5091819;28;20996;-78
2020/12/25 03:15:53;;;;;;;4.80;3.00;;;3.80;99.90;;;;;;5091105;28;20475;-77
2020/12/25 03:18:19;;;;;;;4.73;2.47;;;3.90;99.90;;;;;;5091820;28;20533;-76
2020/12/25 03:20:46;;;;;;;3.47;2.70;;;3.90;99.90;;;;;;5076756;28;20568;-78
2020/12/25 03:23:13;;;;;;;2.60;2.37;;;4.00;99.90;;;;;;5071718;28;20981;-78
2020/12/25 03:25:39;;;;;;;2.77;2.50;;;3.90;99.90;;;;;;5070514;28;20563;-75
2020/12/25 03:28:06;;;;;;;2.83;2.57;;;4.10;99.90;;;;;;5071630;28;20542;-77
2020/12/25 03:30:33;;;;;;;3.87;2.53;;;4.00;99.90;;;;;;5071502;28;20537;-78
2020/12/25 03:33:00;;;;;;;4.33;3.20;;;4.20;99.90;;;;;;5071512;28;20485;-77
2020/12/25 03:35:26;;;;;;;4.10;3.07;;;4.10;99.90;;;;;;5071117;28;20468;-78
2020/12/25 03:37:53;;;;;;;5.83;3.77;;;4.20;99.90;;;;;;5071057;28;20456;-77
2020/12/25 03:40:19;;;;;;;4.30;2.80;;;4.10;99.90;;;;;;5071770;28;20958;-77
2020/12/25 03:42:47;;;;;;;3.10;2.80;;;4.20;99.90;;;;;;5072199;28;20449;-78
2020/12/25 03:45:13;;;;;;;5.40;2.83;;;4.30;99.90;;;;;;5071460;28;20450;-79
2020/12/25 03:47:40;;;;;;;2.63;2.43;;;4.00;99.90;;;;;;5071380;28;20536;-77
2020/12/25 03:50:07;;;;;;;5.50;3.57;;;4.00;99.90;;;;;;5072754;28;20528;-78
2020/12/25 03:52:34;;;;;;;3.63;2.90;;;4.10;99.90;;;;;;5073730;28;20541;-75
2020/12/25 03:55:00;;;;;;;3.80;2.97;;;4.30;99.90;;;;;;5078386;28;20512;-77
2020/12/25 03:57:26;;;;;;;4.27;2.87;;;4.00;99.90;;;;;;5081819;28;20438;-78
2020/12/25 03:59:53;;;;;;;4.03;3.30;;;4.20;99.90;;;;;;5072923;28;20803;-79
2020/12/25 04:02:19;;;;;;;6.10;4.60;;;4.20;99.90;;;;;;5072626;28;20456;-76
2020/12/25 04:04:47;;;;;;;5.13;3.50;;;4.50;99.90;;;;;;5071741;28;20536;-78
2020/12/25 04:07:13;;;;;;;3.50;3.03;;;4.40;99.90;;;;;;5071362;28;20551;-79
2020/12/25 04:09:39;;;;;;;3.20;2.80;;;4.20;99.90;;;;;;5070849;28;20542;-75
2020/12/25 04:12:06;;;;;;;3.83;2.97;;;4.20;99.90;;;;;;5071528;28;20543;-78
2020/12/25 04:14:32;;;;;;;4.40;3.50;;;4.00;99.90;;;;;;5071548;28;20451;-77
2020/12/25 04:16:58;;;;;;;4.03;2.83;;;4.30;99.90;;;;;;5071911;28;20973;-78
2020/12/25 04:19:25;;;;;;;5.23;3.30;;;4.50;99.90;;;;;;5094839;28;20464;-73
2020/12/25 04:21:53;;;;;;;3.80;2.77;;;4.60;99.90;;;;;;5092469;28;20445;-78
2020/12/25 04:24:19;;;;;;;2.90;2.57;;;4.40;99.90;;;;;;5071958;28;20796;-74
2020/12/25 04:26:46;;;;;;;4.47;3.70;;;4.40;99.90;;;;;;5070359;28;20491;-78
2020/12/25 04:29:13;;;;;;;3.73;3.00;;;4.50;99.90;;;;;;5071091;28;20670;-78
2020/12/25 04:31:39;;;;;;;3.00;2.70;;;4.50;99.90;;;;;;5070141;28;20532;-76
2020/12/25 04:34:07;;;;;;;3.13;2.73;;;4.40;99.90;;;;;;5070877;28;20487;-78
2020/12/25 04:36:33;;;;;;;4.57;3.13;;;4.30;99.90;;;;;;5070191;28;20536;-78
2020/12/25 04:39:00;;;;;;;3.40;3.10;;;4.30;99.90;;;;;;5070489;28;20456;-76
2020/12/25 04:41:29;;;;;;;3.10;2.80;;;4.10;99.90;;;;;;5070489;28;20827;-79
2020/12/25 04:43:57;;;;;;;3.60;3.27;;;4.10;99.90;;;;;;5069981;28;20594;-78
2020/12/25 04:46:23;;;;;;;3.07;2.47;;;4.30;99.90;;;;;;5069667;28;20979;-77
2020/12/25 04:48:50;;;;;;;3.77;3.40;;;4.40;99.90;;;;;;5070324;28;20471;-80
2020/12/25 04:51:17;;;;;;;3.63;2.60;;;4.00;99.90;;;;;;5071042;28;20853;-78
2020/12/25 04:53:49;;;;;;;5.10;3.07;;;4.30;99.90;;;;;;5069887;28;20579;-77
2020/12/25 04:56:17;;;;;;;3.13;2.70;;;4.00;99.90;;;;;;5069937;28;20449;-77
2020/12/25 04:58:43;;;;;;;3.30;2.33;;;4.00;99.90;;;;;;5069712;28;20448;-76
2020/12/25 05:01:11;;;;;;;3.20;2.60;;;4.10;99.90;;;;;;5070413;28;20524;-77
2020/12/25 05:03:39;;;;;;;2.80;2.50;;;3.90;99.90;;;;;;5070089;28;20900;-78
2020/12/25 05:06:06;;;;;;;2.60;2.40;;;4.10;99.90;;;;;;5069903;28;20453;-77
2020/12/25 05:08:37;;;;;;;2.87;2.60;;;3.80;99.90;;;;;;5070218;28;20536;-77
2020/12/25 05:11:05;;;;;;;3.73;2.57;;;3.70;99.90;;;;;;5070090;28;20449;-79
2020/12/25 05:13:33;;;;;;;3.13;2.83;;;3.80;99.90;;;;;;5072151;28;20485;-77
2020/12/25 05:15:59;;;;;;;6.23;3.00;;;3.70;99.90;;;;;;5073528;28;20482;-74
2020/12/25 05:18:31;;;;;;;3.00;2.60;;;4.00;99.90;;;;;;5073823;28;20441;-77
2020/12/25 05:20:58;;;;;;;3.10;2.67;;;3.80;99.90;;;;;;5073073;28;20480;-76
2020/12/25 05:23:31;;;;;;;3.33;3.00;;;3.70;99.90;;;;;;5074197;28;20482;-79
2020/12/25 05:26:00;;;;;;;3.20;2.47;;;3.70;99.90;;;;;;5072919;28;20991;-79
2020/12/25 05:28:28;;;;;;;3.10;2.57;;;3.70;99.90;;;;;;5073519;28;21001;-78
2020/12/25 05:30:58;;;;;;;3.27;2.90;;;3.60;99.90;;;;;;5073504;28;20499;-79
2020/12/25 05:33:25;;;;;;;3.20;2.90;;;3.80;99.90;;;;;;5073475;28;20515;-78
2020/12/25 05:35:54;;;;;;;3.40;2.40;;;3.90;99.90;;;;;;5073509;28;20454;-77
2020/12/25 05:38:21;;;;;;;2.93;2.30;;;4.00;99.90;;;;;;5074811;28;20448;-76
2020/12/25 05:40:47;;;;;;;3.67;3.10;;;4.10;99.90;;;;;;5073293;28;20552;-78
2020/12/25 05:43:15;;;;;;;4.20;3.07;;;3.90;99.90;;;;;;5073391;28;20460;-78
2020/12/25 05:45:42;;;;;;;3.70;3.17;;;3.80;99.90;;;;;;5072402;28;20591;-78
2020/12/25 05:48:10;;;;;;;3.20;2.70;;;4.10;99.90;;;;;;5073300;28;20521;-78
2020/12/25 05:50:37;;;;;;;5.07;4.23;;;3.90;99.90;;;;;;5072687;28;21024;-77
2020/12/25 05:53:05;;;;;;;3.83;2.87;;;3.90;99.90;;;;;;5073163;28;20571;-76
2020/12/25 05:55:32;;;;;;;3.03;2.70;;;3.80;99.90;;;;;;5072872;28;20781;-75
2020/12/25 05:58:01;;;;;;;3.63;3.27;;;3.60;99.90;;;;;;5072861;28;21000;-76
2020/12/25 06:00:28;;;;;;;4.13;3.73;;;3.60;99.90;;;;;;5073141;28;20842;-77
2020/12/25 06:02:55;;;;;;;4.10;3.43;;;3.60;99.90;;;;;;5072556;28;20453;-77
2020/12/25 06:05:24;;;;;;;3.90;3.53;;;3.60;99.90;;;;;;5072609;28;20528;-75
2020/12/25 06:07:51;;;;;;;4.60;3.53;;;;;;;;;;5072851;28;20527;-77
2020/12/25 06:10:19;;;;;;;4.93;3.30;;;;;;;;;;5072827;28;20956;-77
2020/12/25 06:12:46;;;;;;;4.63;3.60;;;;;;;;;;5072333;28;20623;-77
2020/12/25 06:15:18;;;;;;;6.33;3.63;;;3.80;99.90;;;;;;5072473;28;20512;-77
2020/12/25 06:17:57;;;;;;;5.20;3.97;;;3.70;99.90;;;;;;5072253;28;20477;-77
2020/12/25 06:20:26;;;;;;;5.60;4.10;;;3.80;99.90;;;;;;5072619;28;20481;-76
2020/12/25 06:22:52;;;;;;;5.10;4.00;;;3.60;99.90;;;;;;5077257;28;20448;-76
2020/12/25 06:25:22;;;;;;;5.00;3.93;;;3.60;99.90;;;;;;5091809;28;20457;-77
2020/12/25 06:27:49;;;;;;;5.87;4.30;;;3.70;99.90;;;;;;5092544;28;20498;-77
2020/12/25 06:30:24;;;;;;;4.80;3.90;;;3.60;99.90;;;;;;5092652;28;20505;-77
2020/12/25 06:32:53;;;;;;;6.83;4.33;;;3.50;99.90;;;;;;5092751;28;20483;-77
2020/12/25 06:35:32;;;;;;;6.07;4.43;;;3.60;99.90;;;;;;5092076;28;20463;-74
2020/12/25 06:37:59;;;;;;;6.50;4.67;;;3.60;99.90;;;;;;5092743;28;20450;-79
2020/12/25 06:40:26;;;;;;;4.70;4.20;;;3.50;99.90;;;;;;5092520;28;20541;-78
2020/12/25 06:42:56;;;;;;;5.23;4.13;;;3.60;99.90;;;;;;5092196;28;21010;-77
2020/12/25 06:45:28;;;;;;;5.63;4.90;;;3.60;99.90;;;;;;5091914;28;20449;-76
2020/12/25 06:48:10;;;;;;;5.47;4.53;;;3.70;99.90;;;;;;5091918;28;20963;-75
2020/12/25 06:50:45;;;;;;;4.37;3.80;;;3.50;99.90;;;;;;5091805;28;20885;-76
2020/12/25 06:53:32;;;;;;;7.67;4.47;;;3.50;99.90;;;;;;5092000;28;20567;-76
2020/12/25 06:56:08;;;;;;;7.17;4.30;;;3.80;99.90;;;;;;5092010;28;20502;-76
2020/12/25 06:58:37;;;;;;;5.33;4.60;;;3.70;99.90;;;;;;5091784;28;20470;-74
2020/12/25 07:01:04;;;;;;;5.30;4.37;;;3.70;99.90;;;;;;5079139;28;20522;-76
2020/12/25 07:03:34;;;;;;;5.63;4.27;;;3.90;99.90;;;;;;5071719;28;20822;-76
2020/12/25 07:06:03;;;;;;;6.20;4.80;;;3.90;99.90;;;;;;5071369;28;20537;-74
2020/12/25 07:08:31;;;;;;;5.83;4.27;;;3.40;99.90;;;;;;5072140;28;20496;-75
2020/12/25 07:11:07;;;;;;;5.70;4.13;;;3.30;99.90;;;;;;5071320;28;20888;-76
2020/12/25 07:13:34;;;;;;;4.70;4.23;;;3.30;99.90;;;;;;5071273;28;20481;-73
2020/12/25 07:16:01;;;;;;;3.20;2.90;;;3.50;99.90;;;;;;5070954;28;20446;-75
2020/12/25 07:18:28;;;;;;;3.90;3.30;;;3.20;99.90;;;;;;5071778;28;20548;-75
2020/12/25 07:20:56;;;;;;;3.93;3.27;;;3.10;99.90;;;;;;5071259;28;20481;-76
2020/12/25 07:23:24;;;;;;;3.93;3.43;;;3.30;99.90;;;;;;5071444;28;20463;-75
2020/12/25 07:25:51;;;;;;;4.30;3.27;;;3.20;99.90;;;;;;5070645;28;20531;-76
2020/12/25 07:28:23;;;;;;;4.93;3.20;;;3.40;99.90;;;;;;5071584;28;20441;-77
2020/12/25 07:30:51;;;;;;;2.93;2.60;;;3.40;99.90;;;;;;5088470;28;20582;-76
2020/12/25 07:33:17;;;;;;;3.93;3.27;;;3.20;99.90;;;;;;5091684;28;20488;-78
2020/12/25 07:35:43;;;;;;;4.60;2.73;;;3.20;99.90;;;;;;5090593;28;20440;-77
2020/12/25 07:38:13;;;;;;;3.30;2.77;;;3.20;99.90;;;;;;5091506;28;20454;-77
2020/12/25 07:40:40;;;;;;;3.50;3.10;;;3.30;99.90;;;;;;5090896;28;20455;-74
2020/12/25 07:43:07;;;;;;;3.63;2.80;;;3.30;99.90;;;;;;5091298;28;20586;-77
2020/12/25 07:45:34;;;;;;;2.80;2.40;;;;;;;;;;5090846;28;20531;-75
2020/12/25 07:48:02;;;;;;;2.13;1.93;;;;;;;;;;5091255;28;20448;-77
2020/12/25 07:50:33;;;;;;;4.47;3.33;;;;;;;;;;5091148;28;20574;-78
2020/12/25 07:53:00;;;;;;;3.67;2.97;;;;;;;;;;5091284;28;20484;-77
2020/12/25 07:55:27;;;;;;;4.17;3.30;;;;;;;;;;5090606;28;20458;-77
2020/12/25 07:57:55;;;;;;;2.63;2.43;;;;;;;;;;5078083;28;20878;-78
2020/12/25 08:00:21;;;;;;;3.60;3.30;;;;;;;;;;5071103;28;20802;-78
2020/12/25 08:02:49;;;;;;;3.83;2.70;;;;;;;;;;5070742;28;20539;-78
2020/12/25 08:05:16;;;;;;;4.20;3.37;;;;;;;;;;5070667;28;20524;-78
2020/12/25 08:07:43;;;;;;;3.23;2.70;;;;;;;;;;5070209;28;20450;-77
2020/12/25 08:10:11;;;;;;;3.63;3.13;;;;;;;;;;5070781;28;20450;-78
2020/12/25 08:12:39;;;;;;;4.90;3.60;;;;;;;;;;5070457;28;20569;-78
2020/12/25 08:15:06;;;;;;;4.23;3.20;;;;;;;;;;5070182;28;21023;-77
2020/12/25 08:17:33;;;;;;;4.40;2.53;;;;;;;;;;5070577;28;20533;-78
2020/12/25 08:20:02;;;;;;;4.07;3.40;;;;;;;;;;5070603;28;20518;-76
2020/12/25 08:22:28;;;;;;;3.70;3.13;;;;;;;;;;5070624;28;20467;-77
2020/12/25 08:24:55;;;;;;;3.67;3.27;;;;;;;;;;5069914;28;20447;-77
2020/12/25 08:27:22;;;;;;;3.40;2.60;;;;;;;;;;5071513;28;20877;-78
2020/12/25 08:29:49;;;;;;;4.87;4.37;;;;;;;;;;5071447;28;20472;-78
2020/12/25 08:32:17;;;;;;;6.00;4.53;;;;;;;;;;5071478;28;20442;-76
2020/12/25 08:34:44;;;;;;;6.47;4.80;;;;;;;;;;5092581;28;20464;-76
2020/12/25 08:37:13;;;;;;;8.03;5.37;;;;;;;;;;5091406;28;20867;-78
2020/12/25 08:39:41;;;;;;;7.87;5.13;;;;;;;;;;5072338;28;20797;-79
2020/12/25 08:42:09;;;;;;;5.20;4.53;;;;;;;;;;5070533;28;20941;-78
2020/12/25 08:44:37;;;;;;;7.90;5.50;;;;;;;;;;5070115;28;20476;-76
2020/12/25 08:47:07;;;;;;;6.60;5.30;;;;;;;;;;5069937;28;20457;-78
2020/12/25 08:49:34;;;;;;;7.97;6.70;;;;;;;;;;5074438;28;20528;-79
2020/12/25 08:52:01;;;;;;;8.20;5.90;;;;;;;;;;5074391;28;20543;-77
2020/12/25 08:54:28;;;;;;;8.60;6.53;;;;;;;;;;5074184;28;20468;-78
2020/12/25 08:56:55;;;;;;;8.40;5.87;;;;;;;;;;5073221;28;20531;-77
2020/12/25 08:59:22;;;;;;;8.93;6.70;;;;;;;;;;5073095;28;20445;-78
2020/12/25 09:01:49;;;;;;;9.40;6.57;;;;;;;;;;5073937;28;20468;-78
2020/12/25 09:04:16;;;;;;;9.80;6.73;;;;;;;;;;5074058;28;20447;-78
2020/12/25 09:06:44;;;;;;;11.10;8.03;;;;;;;;;;5073236;28;20510;-77
2020/12/25 09:09:11;;;;;;;8.70;6.30;;;;;;;;;;5073899;28;20509;-77
2020/12/25 09:11:37;;;;;;;8.13;6.57;;;;;;;;;;5073667;28;20463;-78
2020/12/25 09:14:04;;;;;;;9.27;6.20;;;;;;;;;;5074255;28;20484;-76
2020/12/25 09:16:31;;;;;;;8.93;6.00;;;;;;;;;;5073453;28;20453;-78
2020/12/25 09:18:59;;;;;;;8.93;6.40;;;;;;;;;;5073281;28;20474;-79
2020/12/25 09:21:28;;;;;;;7.53;6.27;;;;;;;;;;5073661;28;20970;-79
2020/12/25 09:23:56;;;;;;;10.97;6.53;;;;;;;;;;5073307;28;20719;-79
2020/12/25 09:26:23;;;;;;;8.53;6.60;;;;;;;;;;5073252;28;20448;-78
2020/12/25 09:28:50;;;;;;;9.43;7.13;;;;;;;;;;5073347;28;20507;-78
2020/12/25 09:31:17;;;;;;;8.70;5.87;;;;;;;;;;5073527;28;20958;-79
2020/12/25 09:33:43;;;;;;;11.50;6.83;;;;;;;;;;5072898;28;20496;-80
2020/12/25 09:36:11;;;;;;;8.80;6.23;;;;;;;;;;5073343;28;20533;-78
2020/12/25 09:38:43;;;;;;;10.57;6.50;;;3.20;99.90;;;;;;5073239;28;20473;-78
2020/12/25 09:41:11;;;;;;;10.90;6.20;;;4.90;99.90;;;;;;5073609;28;20448;-77
2020/12/25 09:43:38;;;;;;;9.87;5.80;;;4.80;99.90;;;;;;5073242;28;20495;-79
2020/12/25 09:46:04;;;;;;;5.90;5.20;;;4.60;99.90;;;;;;5072789;28;20480;-79
2020/12/25 09:48:30;;;;;;;9.40;6.53;;;4.80;99.90;;;;;;5073157;28;20549;-78
2020/12/25 09:50:57;;;;;;;10.50;7.80;;;;;;;;;;5072964;28;20992;-78
2020/12/25 09:53:24;;;;;;;10.97;6.27;;;;;;;;;;5073040;28;20492;-76
2020/12/25 09:55:51;;;;;;;9.03;5.80;;;;;;;;;;5072417;28;20532;-78
2020/12/25 09:58:18;;;;;;;9.00;5.87;;;;;;;;;;5073016;28;20473;-77
2020/12/25 10:00:45;;;;;;;5.50;4.37;;;;;;;;;;5071700;28;20515;-78
2020/12/25 10:03:12;;;;;;;6.43;5.23;;;;;;;;;;5072924;28;20551;-78
2020/12/25 10:05:39;;;;;;;8.57;5.73;;;;;;;;;;5072364;28;20449;-78
2020/12/25 10:08:05;;;;;;;7.20;5.17;;;;;;;;;;5072967;28;20488;-78
2020/12/25 10:10:33;;;;;;;8.50;5.40;;;;;;;;;;5072839;28;20537;-78
2020/12/25 10:12:59;;;;;;;9.00;5.83;;;4.80;99.90;;;;;;5072683;28;20546;-76
2020/12/25 10:15:26;;;;;;;7.77;5.40;;;5.30;99.90;;;;;;5072398;28;20454;-78
2020/12/25 10:17:53;;;;;;;8.83;5.33;;;5.20;99.90;;;;;;5072581;28;20460;-78
2020/12/25 10:20:19;;;;;;;6.07;4.37;;;5.30;99.90;;;;;;5072657;28;20560;-76
2020/12/25 10:22:46;;;;;;;5.53;4.13;;;5.40;45.00;;;;;;5072413;28;20457;-78
2020/12/25 10:25:12;;;;;;;5.43;3.80;;;5.00;1.00;;;;;;5072472;28;20458;-78
2020/12/25 10:27:39;;;;;;;5.77;3.87;;;4.90;20.70;;;;;;5072214;28;20449;-77
2020/12/25 10:30:05;;;;;;;6.10;4.13;;;5.00;99.90;;;;;;5072664;28;20488;-77
2020/12/25 10:32:33;;;;;;;4.37;3.70;;;5.00;67.40;;;;;;5072380;28;21106;-78
2020/12/25 10:34:59;;;;;;;6.00;3.90;;;5.00;99.90;;;;;;5072158;28;20453;-76
2020/12/25 10:37:25;;;;;;;7.00;4.60;;;5.20;84.30;;;;;;5072751;28;20475;-78
2020/12/25 10:39:52;;;;;;;6.43;4.90;;;5.00;90.00;;;;;;5072394;28;20457;-78
2020/12/25 10:42:18;;;;;;;6.07;4.70;;;5.00;99.90;;;;;;5072415;28;20452;-79
2020/12/25 10:44:45;;;;;;;6.70;5.13;;;5.00;99.90;;;;;;5072470;28;20453;-78
2020/12/25 10:47:12;;;;;;;4.50;4.00;;;5.20;99.90;;;;;;5074604;28;20548;-78
2020/12/25 10:49:39;;;;;;;7.50;4.40;;;5.10;74.20;;;;;;5072184;28;20454;-78
2020/12/25 10:52:06;;;;;;;6.00;5.00;;;5.00;99.90;;;;;;5072456;28;20498;-78
2020/12/25 10:54:32;;;;;;;10.47;5.10;;;5.30;99.90;;;;;;5083866;28;20843;-78
2020/12/25 10:56:58;;;;;;;8.17;4.67;;;5.20;92.40;;;;;;5091290;28;20542;-78
2020/12/25 10:59:25;;;;;;;7.47;5.00;;;5.20;99.90;;;;;;5092449;28;20532;-78
2020/12/25 11:01:51;;;;;;;7.47;5.33;;;5.10;98.90;;;;;;5072055;28;20529;-78
2020/12/25 11:04:17;;;;;;;9.03;5.93;;;5.20;99.90;;;;;;5072061;28;20800;-78
2020/12/25 11:06:45;;;;;;;6.50;4.87;;;5.20;99.90;;;;;;5070920;28;20465;-78
2020/12/25 11:09:11;;;;;;;9.07;5.37;;;5.10;99.90;;;;;;5071922;28;20459;-77
2020/12/25 11:11:40;;;;;;;6.83;4.40;;;4.90;1.00;;;;;;5070903;28;20576;-77
2020/12/25 11:14:07;;;;;;;12.63;5.30;;;4.90;1.00;;;;;;5071893;28;20489;-76
2020/12/25 11:16:35;;;;;;;8.50;4.87;;;4.90;5.80;;;;;;5071120;28;20538;-75
2020/12/25 11:19:03;;;;;;;9.00;4.80;;;4.90;1.00;;;;;;5071317;28;20448;-78
2020/12/25 11:21:31;;;;;;;5.97;4.13;;;5.10;1.00;;;;;;5071792;28;20551;-77
2020/12/25 11:23:59;;;;;;;8.63;4.50;;;4.90;1.00;;;;;;5070924;28;20537;-77
2020/12/25 11:26:27;;;;;;;5.53;4.63;;;5.20;1.00;;;;;;5070794;28;20485;-76
2020/12/25 11:28:55;;;;;;;4.70;4.27;;;5.00;1.00;;;;;;5070664;28;20766;-77
2020/12/25 11:31:23;;;;;;;4.63;3.50;;;4.90;1.00;;;;;;5071184;28;20861;-77
2020/12/25 11:33:50;;;;;;;4.00;3.30;;;5.00;1.00;;;;;;5070527;28;20853;-77
2020/12/25 11:36:18;;;;;;;6.00;5.10;;;5.20;1.00;;;;;;5070544;28;20463;-78
2020/12/25 11:38:46;;;;;;;5.20;3.77;;;5.20;1.00;;;;;;5072453;28;20855;-77
2020/12/25 11:41:15;;;;;;;4.87;3.70;;;5.20;1.00;;;;;;5091403;28;20483;-77
2020/12/25 11:43:42;;;;;;;8.63;3.77;;;4.90;99.90;;;;;;5090780;28;20531;-76
2020/12/25 11:46:09;;;;;;;4.40;3.47;;;4.90;1.00;;;;;;5090968;28;20539;-76
2020/12/25 11:48:36;;;;;;;4.90;4.00;;;5.10;1.00;;;;;;5090822;28;20491;-76
2020/12/25 11:51:02;;;;;;;4.60;4.10;;;5.20;99.90;;;;;;5091486;28;20448;-77
2020/12/25 11:53:29;;;;;;;4.83;3.43;;;5.20;99.90;;;;;;5091284;28;20495;-78
2020/12/25 11:55:55;;;;;;;5.30;3.33;;;5.10;1.00;;;;;;5090611;28;20529;-77
2020/12/25 11:58:22;;;;;;;4.27;3.57;;;5.20;99.90;;;;;;5091249;28;20531;-76
2020/12/25 12:00:49;;;;;;;6.20;4.17;;;5.30;1.00;;;;;;5079901;28;20450;-76
2020/12/25 12:03:15;;;;;;;4.17;3.57;;;5.30;1.00;;;;;;5070848;28;21006;-77
2020/12/25 12:05:43;;;;;;;4.67;3.40;;;5.20;99.90;;;;;;5070030;28;20453;-76
2020/12/25 12:08:10;;;;;;;5.20;4.03;;;5.20;99.90;;;;;;5070868;28;20457;-77
2020/12/25 12:10:36;;;;;;;4.03;3.57;;;5.20;99.90;;;;;;5070489;28;20874;-75
2020/12/25 12:13:04;;;;;;;6.70;3.80;;;5.10;99.90;;;;;;5071255;28;20498;-77
2020/12/25 12:15:35;;;;;;;4.40;3.77;;;5.10;99.90;;;;;;5070535;28;20504;-77
2020/12/25 12:18:02;;;;;;;4.40;2.90;;;5.10;30.30;;;;;;5070889;28;20528;-77
2020/12/25 12:20:29;;;;;;;4.67;3.20;;;5.30;99.90;;;;;;5070787;28;20564;-76
2020/12/25 12:22:55;;;;;;;6.17;3.97;;;5.20;99.90;;;;;;5093659;28;20507;-76
2020/12/25 12:25:22;;;;;;;6.73;3.30;;;5.10;1.00;;;;;;5097682;28;20513;-76
2020/12/25 12:27:49;;;;;;;4.60;3.00;;;;;;;;;;5097383;28;20466;-76
2020/12/25 12:30:15;;;;;;;4.37;3.07;;;;;;;;;;5097659;28;20484;-76
2020/12/25 12:32:43;;;;;;;4.50;3.23;;;;;;;;;;5096581;28;20520;-76
2020/12/25 12:35:10;;;;;;;5.50;3.63;;;;;;;;;;5096947;28;20439;-76
2020/12/25 12:37:36;;;;;;;3.87;3.47;;;;;;;;;;5097090;28;20535;-76
2020/12/25 12:40:03;;;;;;;4.27;2.70;;;;;;;;;;5097398;28;20445;-76
2020/12/25 12:42:32;;;;;;;5.47;3.50;;;;;;;;;;5097476;28;20566;-77
2020/12/25 12:44:59;;;;;;;6.77;3.73;;;;;;;;;;5096536;28;20535;-76
2020/12/25 12:47:25;;;;;;;4.73;3.27;;;;;;;;;;5097773;28;20452;-77
2020/12/25 12:49:53;;;;;;;5.43;3.60;;;;;;;;;;5097311;28;20531;-78
2020/12/25 12:52:19;;;;;;;4.47;3.47;;;;;;;;;;5097277;28;20475;-76
2020/12/25 12:54:46;;;;;;;5.00;3.30;;;;;;;;;;5096560;28;20578;-78
2020/12/25 12:57:13;;;;;;;3.23;2.83;;;;;;;;;;5097272;28;20879;-76
2020/12/25 12:59:39;;;;;;;4.10;2.70;;;;;;;;;;5095359;28;20502;-74
2020/12/25 13:02:06;;;;;;;3.33;2.80;;;;;;;;;;5076887;28;20524;-76
2020/12/25 13:04:33;;;;;;;5.50;3.17;;;;;;;;;;5076677;28;20535;-76
2020/12/25 13:07:04;;;;;;;4.00;3.37;;;;;;;;;;5076908;28;20545;-76
2020/12/25 13:09:31;;;;;;;4.17;3.47;;;;;;;;;;5077300;28;20452;-76
2020/12/25 13:11:57;;;;;;;2.80;2.60;;;;;;;;;;5076547;28;20475;-78
2020/12/25 13:14:25;;;;;;;4.13;2.83;;;;;;;;;;5076204;28;20574;-75
2020/12/25 13:16:52;;;;;;;4.50;2.83;;;;;;;;;;5076513;28;20452;-77
2020/12/25 13:19:18;;;;;;;3.40;2.87;;;;;;;;;;5076666;28;20569;-77
2020/12/25 13:21:45;;;;;;;3.00;2.70;;;;;;;;;;5076556;28;20927;-77
2020/12/25 13:24:13;;;;;;;3.73;3.20;;;;;;;;;;5076656;28;21017;-77